createdAt,value
2016-08-19T00:00:08.080Z,1006.22
2016-08-19T00:01:21.255Z,1006.21
2016-08-19T00:02:34.435Z,1006.22
2016-08-19T00:03:47.408Z,1006.26
2016-08-19T00:05:00.594Z,1006.26
2016-08-19T00:06:13.567Z,1006.25
2016-08-19T00:07:26.541Z,1006.24
2016-08-19T00:08:39.527Z,1006.24
2016-08-19T00:09:52.508Z,1006.23
2016-08-19T00:11:05.488Z,1006.23
2016-08-19T00:12:18.462Z,1006.25
2016-08-19T00:13:31.442Z,1006.26
2016-08-19T00:14:44.421Z,1006.23
2016-08-19T00:15:57.395Z,1006.2
2016-08-19T00:17:10.372Z,1006.19
2016-08-19T00:18:23.359Z,1006.18
2016-08-19T00:19:36.342Z,1006.18
2016-08-19T00:20:49.538Z,1006.18
2016-08-19T00:22:02.514Z,1006.17
2016-08-19T00:23:15.487Z,1006.15
2016-08-19T00:24:28.473Z,1006.19
2016-08-19T00:25:41.460Z,1006.16
2016-08-19T00:26:54.446Z,1006.13
2016-08-19T00:28:07.422Z,1006.09
2016-08-19T00:29:20.400Z,1006.09
2016-08-19T00:30:33.367Z,1006.07
2016-08-19T00:31:46.551Z,1006.08
2016-08-19T00:32:59.528Z,1006.02
2016-08-19T00:34:12.518Z,1006.04
2016-08-19T00:35:25.710Z,1006.02
2016-08-19T00:36:38.684Z,1006.03
2016-08-19T00:37:51.656Z,1005.99
2016-08-19T00:39:04.830Z,1006
2016-08-19T00:40:17.809Z,1006.02
2016-08-19T00:41:30.786Z,1006
2016-08-19T00:42:43.772Z,1005.99
2016-08-19T00:43:56.751Z,1006
2016-08-19T00:45:09.748Z,1006.02
2016-08-19T00:46:22.733Z,1006.02
2016-08-19T00:47:35.717Z,1006.03
2016-08-19T00:48:48.905Z,1005.98
2016-08-19T00:50:02.085Z,1005.95
2016-08-19T00:51:15.065Z,1005.96
2016-08-19T00:52:28.049Z,1005.99
2016-08-19T00:53:41.429Z,1005.97
2016-08-19T00:54:54.397Z,1005.93
2016-08-19T00:56:07.383Z,1005.92
2016-08-19T00:57:20.357Z,1005.96
2016-08-19T00:58:33.527Z,1005.93
2016-08-19T00:59:46.504Z,1005.93
2016-08-19T01:00:59.481Z,1005.94
2016-08-19T01:02:12.463Z,1005.95
2016-08-19T01:03:25.654Z,1005.95
2016-08-19T01:04:38.635Z,1005.93
2016-08-19T01:05:51.618Z,1005.95
2016-08-19T01:07:04.594Z,1005.92
2016-08-19T01:08:17.580Z,1005.91
2016-08-19T01:09:30.558Z,1005.9
2016-08-19T01:10:43.586Z,1005.91
2016-08-19T01:11:56.566Z,1005.91
2016-08-19T01:13:09.544Z,1005.91
2016-08-19T01:14:22.541Z,1005.85
2016-08-19T01:15:35.529Z,1005.86
2016-08-19T01:16:48.521Z,1005.85
2016-08-19T01:18:01.509Z,1005.84
2016-08-19T01:19:14.681Z,1005.88
2016-08-19T01:20:27.865Z,1005.87
2016-08-19T01:21:40.854Z,1005.88
2016-08-19T01:22:53.829Z,1005.9
2016-08-19T01:24:07.010Z,1005.89
2016-08-19T01:25:19.998Z,1005.9
2016-08-19T01:26:32.975Z,1005.86
2016-08-19T01:27:45.945Z,1005.85
2016-08-19T01:28:59.120Z,1005.85
2016-08-19T01:30:12.115Z,1005.83
2016-08-19T01:31:25.102Z,1005.84
2016-08-19T01:32:38.087Z,1005.85
2016-08-19T01:33:51.060Z,1005.84
2016-08-19T01:35:04.057Z,1005.86
2016-08-19T01:36:17.037Z,1005.88
2016-08-19T01:37:30.177Z,1005.84
2016-08-19T01:38:43.160Z,1005.89
2016-08-19T01:39:56.142Z,1005.86
2016-08-19T01:41:09.110Z,1005.92
2016-08-19T01:42:22.099Z,1005.87
2016-08-19T01:43:35.282Z,1005.88
2016-08-19T01:44:48.462Z,1005.88
2016-08-19T01:46:01.442Z,1005.88
2016-08-19T01:47:14.411Z,1005.87
2016-08-19T01:48:27.476Z,1005.87
2016-08-19T01:49:40.475Z,1005.88
2016-08-19T01:50:53.454Z,1005.9
2016-08-19T01:52:06.435Z,1005.84
2016-08-19T01:53:19.406Z,1005.9
2016-08-19T01:54:32.384Z,1005.83
2016-08-19T01:55:45.363Z,1005.88
2016-08-19T01:56:58.750Z,1005.86
2016-08-19T01:58:11.715Z,1005.8
2016-08-19T01:59:24.912Z,1005.82
2016-08-19T02:00:37.892Z,1005.87
2016-08-19T02:01:50.881Z,1005.82
2016-08-19T02:03:03.859Z,1005.82
2016-08-19T02:04:16.836Z,1005.81
2016-08-19T02:05:30.030Z,1005.82
2016-08-19T02:06:43.006Z,1005.84
2016-08-19T02:07:56.180Z,1005.8
2016-08-19T02:09:09.174Z,1005.81
2016-08-19T02:10:22.205Z,1005.78
2016-08-19T02:11:35.188Z,1005.81
2016-08-19T02:12:48.169Z,1005.8
2016-08-19T02:14:01.148Z,1005.79
2016-08-19T02:15:14.127Z,1005.79
2016-08-19T02:16:27.107Z,1005.8
2016-08-19T02:17:40.089Z,1005.8
2016-08-19T02:18:53.060Z,1005.81
2016-08-19T02:20:06.039Z,1005.87
2016-08-19T02:21:19.016Z,1005.85
2016-08-19T02:22:31.996Z,1005.82
2016-08-19T02:23:44.979Z,1005.84
2016-08-19T02:24:58.149Z,1005.84
2016-08-19T02:26:11.127Z,1005.82
2016-08-19T02:27:24.104Z,1005.81
2016-08-19T02:28:37.081Z,1005.84
2016-08-19T02:29:50.055Z,1005.85
2016-08-19T02:31:03.032Z,1005.88
2016-08-19T02:32:16.226Z,1005.87
2016-08-19T02:33:29.424Z,1005.85
2016-08-19T02:34:42.398Z,1005.88
2016-08-19T02:35:55.377Z,1005.86
2016-08-19T02:37:08.552Z,1005.88
2016-08-19T02:38:21.556Z,1005.83
2016-08-19T02:39:34.543Z,1005.8
2016-08-19T02:40:47.522Z,1005.79
2016-08-19T02:42:00.496Z,1005.81
2016-08-19T02:43:13.469Z,1005.76
2016-08-19T02:44:26.444Z,1005.75
2016-08-19T02:45:39.422Z,1005.75
2016-08-19T02:46:52.424Z,1005.76
2016-08-19T02:48:05.402Z,1005.76
2016-08-19T02:49:18.378Z,1005.76
2016-08-19T02:50:31.375Z,1005.75
2016-08-19T02:51:44.546Z,1005.78
2016-08-19T02:52:57.536Z,1005.81
2016-08-19T02:54:10.702Z,1005.77
2016-08-19T02:55:23.689Z,1005.79
2016-08-19T02:56:36.664Z,1005.8
2016-08-19T02:57:49.643Z,1005.8
2016-08-19T02:59:02.623Z,1005.74
2016-08-19T03:00:15.594Z,1005.74
2016-08-19T03:01:28.570Z,1005.75
2016-08-19T03:02:41.745Z,1005.77
2016-08-19T03:03:54.721Z,1005.8
2016-08-19T03:05:07.697Z,1005.77
2016-08-19T03:06:20.676Z,1005.77
2016-08-19T03:07:33.647Z,1005.79
2016-08-19T03:08:46.637Z,1005.73
2016-08-19T03:09:59.622Z,1005.76
2016-08-19T03:11:12.647Z,1005.72
2016-08-19T03:12:25.622Z,1005.7
2016-08-19T03:13:38.594Z,1005.67
2016-08-19T03:14:51.576Z,1005.68
2016-08-19T03:16:04.559Z,1005.69
2016-08-19T03:17:17.527Z,1005.67
2016-08-19T03:18:30.498Z,1005.68
2016-08-19T03:19:43.705Z,1005.68
2016-08-19T03:20:56.671Z,1005.68
2016-08-19T03:22:09.646Z,1005.66
2016-08-19T03:23:22.636Z,1005.67
2016-08-19T03:24:35.607Z,1005.64
2016-08-19T03:25:48.583Z,1005.64
2016-08-19T03:27:01.557Z,1005.61
2016-08-19T03:28:14.738Z,1005.62
2016-08-19T03:29:27.721Z,1005.65
2016-08-19T03:30:40.707Z,1005.61
2016-08-19T03:31:53.887Z,1005.64
2016-08-19T03:33:06.859Z,1005.63
2016-08-19T03:34:19.848Z,1005.64
2016-08-19T03:35:32.828Z,1005.65
2016-08-19T03:36:45.810Z,1005.65
2016-08-19T03:37:58.784Z,1005.7
2016-08-19T03:39:11.763Z,1005.66
2016-08-19T03:40:24.741Z,1005.68
2016-08-19T03:41:37.715Z,1005.71
2016-08-19T03:42:50.688Z,1005.69
2016-08-19T03:44:03.668Z,1005.69
2016-08-19T03:45:16.648Z,1005.67
2016-08-19T03:46:29.619Z,1005.68
2016-08-19T03:47:42.599Z,1005.69
2016-08-19T03:48:55.571Z,1005.74
2016-08-19T03:50:08.559Z,1005.76
2016-08-19T03:51:21.535Z,1005.77
2016-08-19T03:52:34.506Z,1005.78
2016-08-19T03:53:47.481Z,1005.81
2016-08-19T03:55:00.460Z,1005.79
2016-08-19T03:56:13.436Z,1005.8
2016-08-19T03:57:26.410Z,1005.79
2016-08-19T03:58:39.635Z,1005.83
2016-08-19T03:59:52.620Z,1005.82
2016-08-19T04:01:05.603Z,1005.82
2016-08-19T04:02:18.573Z,1005.8
2016-08-19T04:03:31.542Z,1005.84
2016-08-19T04:04:44.518Z,1005.8
2016-08-19T04:05:57.493Z,1005.85
2016-08-19T04:07:10.472Z,1005.83
2016-08-19T04:08:23.448Z,1005.87
2016-08-19T04:09:36.424Z,1005.86
2016-08-19T04:10:49.607Z,1005.88
2016-08-19T04:12:02.799Z,1005.87
2016-08-19T04:13:15.784Z,1005.84
2016-08-19T04:14:28.777Z,1005.82
2016-08-19T04:15:41.752Z,1005.84
2016-08-19T04:16:54.716Z,1005.84
2016-08-19T04:18:07.698Z,1005.8
2016-08-19T04:19:20.874Z,1005.81
2016-08-19T04:20:34.028Z,1005.8
2016-08-19T04:21:47.022Z,1005.8
2016-08-19T04:22:59.999Z,1005.8
2016-08-19T04:24:13.179Z,1005.86
2016-08-19T04:25:26.153Z,1005.87
2016-08-19T04:26:39.125Z,1005.84
2016-08-19T04:27:52.115Z,1005.87
2016-08-19T04:29:05.093Z,1005.9
2016-08-19T04:30:18.075Z,1005.89
2016-08-19T04:31:31.051Z,1005.92
2016-08-19T04:32:44.021Z,1005.89
2016-08-19T04:33:56.991Z,1005.93
2016-08-19T04:35:09.966Z,1005.9
2016-08-19T04:36:22.945Z,1005.92
2016-08-19T04:37:35.923Z,1005.94
2016-08-19T04:38:48.902Z,1005.98
2016-08-19T04:40:01.879Z,1006.03
2016-08-19T04:41:14.852Z,1006
2016-08-19T04:42:27.830Z,1005.99
2016-08-19T04:43:41.018Z,1006.04
2016-08-19T04:44:54.187Z,1006.01
2016-08-19T04:46:07.161Z,1006.03
2016-08-19T04:47:20.349Z,1006.03
2016-08-19T04:48:33.332Z,1006.08
2016-08-19T04:49:46.328Z,1006.06
2016-08-19T04:50:59.299Z,1006.06
2016-08-19T04:52:12.476Z,1005.99
2016-08-19T04:53:25.647Z,1006.05
2016-08-19T04:54:38.630Z,1006.01
2016-08-19T04:55:51.809Z,1006.01
2016-08-19T04:57:04.785Z,1006.02
2016-08-19T04:58:17.965Z,1006.04
2016-08-19T04:59:30.944Z,1006.01
2016-08-19T05:00:43.923Z,1006.02
2016-08-19T05:01:56.909Z,1006.05
2016-08-19T05:03:09.903Z,1006.09
2016-08-19T05:04:22.894Z,1006.11
2016-08-19T05:05:35.865Z,1006.13
2016-08-19T05:06:48.848Z,1006.14
2016-08-19T05:08:02.014Z,1006.14
2016-08-19T05:09:15.002Z,1006.12
2016-08-19T05:10:28.182Z,1006.11
2016-08-19T05:11:41.179Z,1006.13
2016-08-19T05:12:54.163Z,1006.08
2016-08-19T05:14:07.339Z,1006.11
2016-08-19T05:15:20.311Z,1006.13
2016-08-19T05:16:33.288Z,1006.14
2016-08-19T05:17:46.272Z,1006.15
2016-08-19T05:18:59.267Z,1006.13
2016-08-19T05:20:12.438Z,1006.15
2016-08-19T05:21:25.621Z,1006.18
2016-08-19T05:22:38.595Z,1006.2
2016-08-19T05:23:51.576Z,1006.13
2016-08-19T05:25:04.548Z,1006.16
2016-08-19T05:26:17.726Z,1006.14
2016-08-19T05:27:30.703Z,1006.18
2016-08-19T05:28:43.688Z,1006.17
2016-08-19T05:29:56.869Z,1006.2
2016-08-19T05:31:09.843Z,1006.21
2016-08-19T05:32:22.822Z,1006.25
2016-08-19T05:33:35.793Z,1006.31
2016-08-19T05:34:49.011Z,1006.29
2016-08-19T05:36:01.985Z,1006.3
2016-08-19T05:37:14.965Z,1006.32
2016-08-19T05:38:28.145Z,1006.33
2016-08-19T05:39:41.120Z,1006.37
2016-08-19T05:40:54.098Z,1006.31
2016-08-19T05:42:07.083Z,1006.37
2016-08-19T05:43:20.060Z,1006.37
2016-08-19T05:44:33.036Z,1006.34
2016-08-19T05:45:46.004Z,1006.32
2016-08-19T05:46:58.989Z,1006.34
2016-08-19T05:48:12.178Z,1006.34
2016-08-19T05:49:25.156Z,1006.35
2016-08-19T05:50:38.327Z,1006.31
2016-08-19T05:51:51.313Z,1006.35
2016-08-19T05:53:04.287Z,1006.32
2016-08-19T05:54:17.271Z,1006.32
2016-08-19T05:55:30.247Z,1006.33
2016-08-19T05:56:43.223Z,1006.37
2016-08-19T05:57:56.206Z,1006.39
2016-08-19T05:59:09.186Z,1006.39
2016-08-19T06:00:22.160Z,1006.42
2016-08-19T06:01:35.157Z,1006.46
2016-08-19T06:02:48.133Z,1006.43
2016-08-19T06:04:01.111Z,1006.42
2016-08-19T06:05:14.086Z,1006.43
2016-08-19T06:06:27.064Z,1006.46
2016-08-19T06:07:40.035Z,1006.45
2016-08-19T06:08:53.016Z,1006.47
2016-08-19T06:10:05.989Z,1006.42
2016-08-19T06:11:19.015Z,1006.43
2016-08-19T06:12:31.989Z,1006.47
2016-08-19T06:13:44.954Z,1006.47
2016-08-19T06:14:57.917Z,1006.5
2016-08-19T06:16:10.903Z,1006.46
2016-08-19T06:17:23.879Z,1006.49
2016-08-19T06:18:36.847Z,1006.51
2016-08-19T06:19:49.827Z,1006.56
2016-08-19T06:21:02.809Z,1006.54
2016-08-19T06:22:15.773Z,1006.53
2016-08-19T06:23:28.749Z,1006.54
2016-08-19T06:24:41.718Z,1006.52
2016-08-19T06:25:54.700Z,1006.56
2016-08-19T06:27:07.890Z,1006.52
2016-08-19T06:28:20.861Z,1006.52
2016-08-19T06:29:33.853Z,1006.53
2016-08-19T06:30:46.841Z,1006.52
2016-08-19T06:32:00.220Z,1006.54
2016-08-19T06:33:13.392Z,1006.54
2016-08-19T06:34:26.371Z,1006.59
2016-08-19T06:35:39.369Z,1006.59
2016-08-19T06:36:52.345Z,1006.59
2016-08-19T06:38:05.329Z,1006.64
2016-08-19T06:39:18.309Z,1006.74
2016-08-19T06:40:31.294Z,1007.03
2016-08-19T06:41:44.267Z,1007.94
2016-08-19T06:42:57.259Z,1008.68
2016-08-19T06:44:10.248Z,1008.84
2016-08-19T06:45:23.428Z,1008.93
2016-08-19T06:46:36.415Z,1008.38
2016-08-19T06:47:49.402Z,1007.42
2016-08-19T06:49:02.395Z,1006.96
2016-08-19T06:50:15.382Z,1006.86
2016-08-19T06:51:28.365Z,1006.83
2016-08-19T06:52:41.357Z,1006.87
2016-08-19T06:53:54.342Z,1006.93
2016-08-19T06:55:07.540Z,1006.95
2016-08-19T06:56:20.532Z,1006.99
2016-08-19T06:57:33.520Z,1007.02
2016-08-19T06:58:46.512Z,1006.97
2016-08-19T06:59:59.508Z,1007
2016-08-19T07:01:12.494Z,1006.99
2016-08-19T07:02:25.497Z,1007.01
2016-08-19T07:03:38.492Z,1007.02
2016-08-19T07:04:51.484Z,1006.99
2016-08-19T07:06:04.474Z,1006.94
2016-08-19T07:07:17.472Z,1006.92
2016-08-19T07:08:30.676Z,1006.92
2016-08-19T07:09:43.869Z,1006.91
2016-08-19T07:10:56.865Z,1006.93
2016-08-19T07:12:09.852Z,1006.98
2016-08-19T07:13:23.057Z,1006.95
2016-08-19T07:14:36.246Z,1006.97
2016-08-19T07:15:49.237Z,1006.99
2016-08-19T07:17:02.435Z,1007.05
2016-08-19T07:18:15.431Z,1007.16
2016-08-19T07:19:28.417Z,1007.51
2016-08-19T07:20:41.412Z,1008.24
2016-08-19T07:21:54.404Z,1009.3
2016-08-19T07:23:07.403Z,1009.88
2016-08-19T07:24:20.418Z,1010.19
2016-08-19T07:25:33.411Z,1010.41
2016-08-19T07:26:46.423Z,1010.65
2016-08-19T07:27:59.422Z,1011.07
2016-08-19T07:29:12.420Z,1011.41
2016-08-19T07:30:25.418Z,1011.7
2016-08-19T07:31:38.634Z,1011.87
2016-08-19T07:32:51.637Z,1012.46
2016-08-19T07:34:04.645Z,1012.82
2016-08-19T07:35:17.646Z,1013.22
2016-08-19T07:36:30.650Z,1013.65
2016-08-19T07:37:43.674Z,1014.33
2016-08-19T07:38:56.682Z,1014.8
2016-08-19T07:40:09.678Z,1015.47
2016-08-19T07:41:22.672Z,1016.31
2016-08-19T07:42:35.672Z,1016.67
2016-08-19T07:43:48.683Z,1017.18
2016-08-19T07:45:01.698Z,1017.9
2016-08-19T07:46:14.705Z,1018.04
2016-08-19T07:47:27.712Z,1018.41
2016-08-19T07:48:40.713Z,1018.89
2016-08-19T07:49:53.719Z,1020.21
2016-08-19T07:51:06.725Z,1019.9
2016-08-19T07:52:19.925Z,1016.83
2016-08-19T07:53:32.933Z,1011.69
2016-08-19T07:54:45.946Z,1008.6
2016-08-19T07:55:58.948Z,1007.84
2016-08-19T07:57:11.956Z,1007.54
2016-08-19T07:58:24.969Z,1007.47
2016-08-19T07:59:38.170Z,1007.44
2016-08-19T08:00:51.170Z,1007.39
2016-08-19T08:02:04.375Z,1007.33
2016-08-19T08:03:17.585Z,1007.36
2016-08-19T08:04:30.591Z,1007.35
2016-08-19T08:05:43.590Z,1007.35
2016-08-19T08:06:56.604Z,1007.38
2016-08-19T08:08:09.598Z,1007.4
2016-08-19T08:09:22.623Z,1007.37
2016-08-19T08:10:35.617Z,1007.42
2016-08-19T08:11:48.676Z,1007.41
2016-08-19T08:13:01.688Z,1007.42
2016-08-19T08:14:14.693Z,1007.47
2016-08-19T08:15:27.688Z,1007.46
2016-08-19T08:16:40.704Z,1007.48
2016-08-19T08:17:53.733Z,1007.52
2016-08-19T08:19:06.739Z,1007.64
2016-08-19T08:20:19.751Z,1007.86
2016-08-19T08:21:32.756Z,1008.71
2016-08-19T08:22:45.755Z,1011.04
2016-08-19T08:23:58.774Z,1016.39
2016-08-19T08:25:11.783Z,1025.15
2016-08-19T08:26:24.784Z,1032.56
2016-08-19T08:27:37.794Z,1034.53
2016-08-19T08:28:50.800Z,1035.46
2016-08-19T08:30:04.204Z,1034.06
2016-08-19T08:31:17.622Z,1031.65
2016-08-19T08:32:30.838Z,1030.73
2016-08-19T08:33:43.841Z,1031.67
2016-08-19T08:34:56.845Z,1032.81
2016-08-19T08:36:09.851Z,1033.18
2016-08-19T08:37:22.876Z,1032.78
2016-08-19T08:38:36.082Z,1031.7
2016-08-19T08:39:49.098Z,1031.53
2016-08-19T08:41:02.111Z,1030.74
2016-08-19T08:42:15.307Z,1031.23
2016-08-19T08:43:28.306Z,1032.19
2016-08-19T08:44:41.315Z,1030.88
2016-08-19T08:45:54.325Z,1032.04
2016-08-19T08:47:07.335Z,1032.33
2016-08-19T08:48:20.341Z,1031.71
2016-08-19T08:49:33.360Z,1031.4
2016-08-19T08:50:46.566Z,1032.66
2016-08-19T08:51:59.574Z,1033.04
2016-08-19T08:53:12.586Z,1026.46
2016-08-19T08:54:25.804Z,1029.79
2016-08-19T08:55:38.859Z,1031.25
2016-08-19T08:56:52.079Z,1029.88
2016-08-19T08:58:05.280Z,1028.96
2016-08-19T08:59:18.491Z,1029.09
2016-08-19T09:00:31.700Z,1028.74
2016-08-19T09:01:44.722Z,1028.12
2016-08-19T09:02:57.728Z,1029.27
2016-08-19T09:04:10.730Z,1027.51
2016-08-19T09:05:23.747Z,1026.85
2016-08-19T09:06:36.758Z,1027
2016-08-19T09:07:49.762Z,1027.3
2016-08-19T09:09:02.965Z,1027.31
2016-08-19T09:10:15.974Z,1026.75
2016-08-19T09:11:28.986Z,1024.01
2016-08-19T09:12:41.993Z,1019.68
2016-08-19T09:13:55.210Z,1014.34
2016-08-19T09:15:08.215Z,1010
2016-08-19T09:16:21.429Z,1008.27
2016-08-19T09:17:34.436Z,1007.63
2016-08-19T09:18:47.449Z,1007.4
2016-08-19T09:20:00.658Z,1007.28
2016-08-19T09:21:13.672Z,1007.26
2016-08-19T09:22:26.679Z,1007.25
2016-08-19T09:23:39.684Z,1007.25
2016-08-19T09:24:52.896Z,1007.22
2016-08-19T09:26:05.915Z,1007.23
2016-08-19T09:27:18.928Z,1007.24
2016-08-19T09:28:31.938Z,1007.17
2016-08-19T09:29:45.141Z,1007.18
2016-08-19T09:30:58.145Z,1007.19
2016-08-19T09:32:11.373Z,1007.22
2016-08-19T09:33:24.592Z,1007.2
2016-08-19T09:34:47.387Z,1007.22
2016-08-19T09:36:43.847Z,1007.2
2016-08-19T09:38:18.975Z,1007.19
2016-08-19T09:39:32.391Z,1007.15
2016-08-19T09:40:45.643Z,1007.16
2016-08-19T09:41:58.657Z,1007.19
2016-08-19T09:43:11.669Z,1007.17
2016-08-19T09:44:24.668Z,1007.13
2016-08-19T09:45:37.674Z,1007.12
2016-08-19T09:46:50.700Z,1007.12
2016-08-19T09:48:03.700Z,1007.11
2016-08-19T09:49:16.708Z,1007.09
2016-08-19T09:50:29.712Z,1007.06
2016-08-19T09:51:42.725Z,1007.06
2016-08-19T09:52:55.745Z,1007.08
2016-08-19T09:54:08.949Z,1007.05
2016-08-19T09:55:21.959Z,1007.04
2016-08-19T09:56:34.962Z,1007.03
2016-08-19T09:57:47.969Z,1007.04
2016-08-19T09:59:01.184Z,1006.99
2016-08-19T10:00:14.200Z,1007.01
2016-08-19T10:01:27.409Z,1006.97
2016-08-19T10:02:40.408Z,1006.94
2016-08-19T10:03:53.424Z,1006.93
2016-08-19T10:05:06.635Z,1006.94
2016-08-19T10:06:19.637Z,1006.95
2016-08-19T10:07:32.839Z,1006.89
2016-08-19T10:08:46.044Z,1006.89
2016-08-19T10:09:59.055Z,1006.87
2016-08-19T10:11:12.061Z,1006.88
2016-08-19T10:12:25.061Z,1006.88
2016-08-19T10:13:38.066Z,1006.85
2016-08-19T10:14:51.077Z,1006.81
2016-08-19T10:16:04.086Z,1006.83
2016-08-19T10:17:17.095Z,1006.82
2016-08-19T10:18:30.305Z,1006.81
2016-08-19T10:19:43.301Z,1006.89
2016-08-19T10:20:56.308Z,1007.05
2016-08-19T10:22:09.314Z,1007.29
2016-08-19T10:23:22.317Z,1007.5
2016-08-19T10:24:35.328Z,1007.64
2016-08-19T10:25:48.334Z,1007.78
2016-08-19T10:27:01.341Z,1007.67
2016-08-19T10:28:14.350Z,1007.67
2016-08-19T10:29:27.348Z,1007.64
2016-08-19T10:30:40.357Z,1007.64
2016-08-19T10:31:53.380Z,1007.7
2016-08-19T10:33:06.389Z,1007.64
2016-08-19T10:34:19.389Z,1007.71
2016-08-19T10:35:32.595Z,1007.52
2016-08-19T10:36:45.815Z,1007.5
2016-08-19T10:37:58.825Z,1007.67
2016-08-19T10:39:11.826Z,1007.65
2016-08-19T10:40:24.837Z,1007.68
2016-08-19T10:41:37.843Z,1007.74
2016-08-19T10:42:51.053Z,1007.73
2016-08-19T10:44:04.060Z,1007.93
2016-08-19T10:45:17.088Z,1008
2016-08-19T10:46:30.090Z,1007.97
2016-08-19T10:47:43.307Z,1007.91
2016-08-19T10:48:56.308Z,1007.94
2016-08-19T10:50:09.511Z,1007.88
2016-08-19T10:51:22.519Z,1007.83
2016-08-19T10:52:35.529Z,1007.83
2016-08-19T10:53:48.530Z,1007.93
2016-08-19T10:55:01.547Z,1008.08
2016-08-19T10:56:14.552Z,1008.38
2016-08-19T10:57:27.561Z,1008.64
2016-08-19T10:58:40.578Z,1008.9
2016-08-19T10:59:53.603Z,1009
2016-08-19T11:01:06.609Z,1008.55
2016-08-19T11:02:19.618Z,1007.8
2016-08-19T11:03:32.627Z,1007.15
2016-08-19T11:04:45.649Z,1007.01
2016-08-19T11:05:58.650Z,1006.95
2016-08-19T11:07:11.655Z,1006.94
2016-08-19T11:08:24.666Z,1006.83
2016-08-19T11:09:37.664Z,1006.64
2016-08-19T11:10:50.685Z,1006.59
2016-08-19T11:12:03.737Z,1006.51
2016-08-19T11:13:16.752Z,1006.48
2016-08-19T11:14:29.762Z,1006.48
2016-08-19T11:15:42.971Z,1006.52
2016-08-19T11:16:55.983Z,1006.54
2016-08-19T11:18:09.005Z,1006.53
2016-08-19T11:19:22.221Z,1006.52
2016-08-19T11:20:35.233Z,1006.47
2016-08-19T11:21:48.251Z,1006.47
2016-08-19T11:23:01.661Z,1006.44
2016-08-19T11:24:14.668Z,1006.41
2016-08-19T11:25:27.689Z,1006.37
2016-08-19T11:26:40.736Z,1006.36
2016-08-19T11:27:53.736Z,1006.36
2016-08-19T11:29:06.745Z,1006.31
2016-08-19T11:30:19.751Z,1006.29
2016-08-19T11:31:32.764Z,1006.3
2016-08-19T11:32:45.782Z,1006.28
2016-08-19T11:33:58.793Z,1006.28
2016-08-19T11:35:11.793Z,1006.25
2016-08-19T11:36:24.796Z,1006.23
2016-08-19T11:37:37.896Z,1006.21
2016-08-19T11:38:50.912Z,1006.19
2016-08-19T11:40:03.914Z,1006.24
2016-08-19T11:41:16.923Z,1006.19
2016-08-19T11:42:29.930Z,1006.23
2016-08-19T11:43:42.941Z,1006.2
2016-08-19T11:44:55.974Z,1006.2
2016-08-19T11:46:08.995Z,1006.19
2016-08-19T11:47:21.997Z,1006.13
2016-08-19T11:48:35.008Z,1006.08
2016-08-19T11:49:48.008Z,1006.06
2016-08-19T11:51:01.014Z,1006
2016-08-19T11:52:14.024Z,1006.01
2016-08-19T11:53:27.043Z,1005.95
2016-08-19T11:54:40.059Z,1005.97
2016-08-19T11:55:53.070Z,1005.94
2016-08-19T11:57:06.276Z,1005.92
2016-08-19T11:58:19.286Z,1005.92
2016-08-19T11:59:32.290Z,1005.91
2016-08-19T12:00:45.300Z,1005.89
2016-08-19T12:01:58.318Z,1005.91
2016-08-19T12:03:11.325Z,1005.9
2016-08-19T12:04:24.343Z,1005.91
2016-08-19T12:05:37.340Z,1005.9
2016-08-19T12:06:50.550Z,1005.9
2016-08-19T12:08:03.759Z,1005.93
2016-08-19T12:09:16.765Z,1005.9
2016-08-19T12:10:29.771Z,1005.85
2016-08-19T12:11:42.777Z,1005.89
2016-08-19T12:12:55.894Z,1005.88
2016-08-19T12:14:08.889Z,1005.86
2016-08-19T12:15:22.096Z,1005.9
2016-08-19T12:16:35.107Z,1005.85
2016-08-19T12:17:48.481Z,1005.87
2016-08-19T12:19:01.492Z,1005.89
2016-08-19T12:20:14.491Z,1005.89
2016-08-19T12:21:27.507Z,1005.91
2016-08-19T12:22:40.510Z,1005.89
2016-08-19T12:23:53.510Z,1005.89
2016-08-19T12:25:06.524Z,1005.88
2016-08-19T12:26:19.516Z,1005.85
2016-08-19T12:27:32.515Z,1005.81
2016-08-19T12:28:45.720Z,1005.78
2016-08-19T12:29:58.711Z,1005.71
2016-08-19T12:31:11.712Z,1005.74
2016-08-19T12:32:24.719Z,1005.67
2016-08-19T12:33:37.738Z,1005.71
2016-08-19T12:34:50.966Z,1005.66
2016-08-19T12:36:04.186Z,1005.66
2016-08-19T12:37:17.211Z,1005.61
2016-08-19T12:38:30.221Z,1005.58
2016-08-19T12:39:43.348Z,1005.55
2016-08-19T12:40:56.348Z,1005.56
2016-08-19T12:42:09.342Z,1005.55
2016-08-19T12:43:22.345Z,1005.5
2016-08-19T12:44:35.347Z,1005.56
2016-08-19T12:45:48.349Z,1005.53
2016-08-19T12:47:01.354Z,1005.52
2016-08-19T12:48:14.356Z,1005.46
2016-08-19T12:49:27.364Z,1005.41
2016-08-19T12:50:40.358Z,1005.41
2016-08-19T12:51:53.354Z,1005.46
2016-08-19T12:53:06.354Z,1005.42
2016-08-19T12:54:19.361Z,1005.47
2016-08-19T12:55:32.355Z,1005.43
2016-08-19T12:56:45.368Z,1005.45
2016-08-19T12:57:58.369Z,1005.42
2016-08-19T12:59:11.365Z,1005.49
2016-08-19T13:00:24.363Z,1005.5
2016-08-19T13:01:37.377Z,1005.48
2016-08-19T13:02:50.381Z,1005.5
2016-08-19T13:04:03.382Z,1005.44
2016-08-19T13:05:16.378Z,1005.5
2016-08-19T13:06:29.378Z,1005.48
2016-08-19T13:07:42.381Z,1005.47
2016-08-19T13:08:55.376Z,1005.46
2016-08-19T13:10:08.378Z,1005.46
2016-08-19T13:11:21.388Z,1005.45
2016-08-19T13:12:34.468Z,1005.43
2016-08-19T13:13:47.463Z,1005.46
2016-08-19T13:15:00.674Z,1005.44
2016-08-19T13:16:13.665Z,1005.4
2016-08-19T13:17:26.665Z,1005.42
2016-08-19T13:18:39.656Z,1005.43
2016-08-19T13:19:52.864Z,1005.4
2016-08-19T13:21:05.869Z,1005.41
2016-08-19T13:22:18.867Z,1005.41
2016-08-19T13:23:31.864Z,1005.4
2016-08-19T13:24:44.898Z,1005.38
2016-08-19T13:25:57.893Z,1005.35
2016-08-19T13:27:11.086Z,1005.34
2016-08-19T13:28:24.085Z,1005.32
2016-08-19T13:29:37.283Z,1005.29
2016-08-19T13:30:50.281Z,1005.29
2016-08-19T13:32:03.499Z,1005.34
2016-08-19T13:33:16.494Z,1005.33
2016-08-19T13:34:29.618Z,1005.3
2016-08-19T13:35:43.484Z,1005.28
2016-08-19T13:36:56.497Z,1005.24
2016-08-19T13:38:09.485Z,1005.28
2016-08-19T13:39:22.491Z,1005.27
2016-08-19T13:40:35.493Z,1005.25
2016-08-19T13:41:48.492Z,1005.26
2016-08-19T13:43:01.493Z,1005.22
2016-08-19T13:44:14.498Z,1005.28
2016-08-19T13:45:27.506Z,1005.22
2016-08-19T13:46:40.722Z,1005.22
2016-08-19T13:47:53.722Z,1005.25
2016-08-19T13:49:06.714Z,1005.24
2016-08-19T13:50:19.713Z,1005.22
2016-08-19T13:51:32.723Z,1005.21
2016-08-19T13:52:45.724Z,1005.24
2016-08-19T13:53:58.717Z,1005.28
2016-08-19T13:55:11.716Z,1005.22
2016-08-19T13:56:24.913Z,1005.22
2016-08-19T13:57:37.915Z,1005.2
2016-08-19T13:58:50.918Z,1005.2
2016-08-19T14:00:03.915Z,1005.17
2016-08-19T14:01:16.906Z,1005.12
2016-08-19T14:02:30.103Z,1005.12
2016-08-19T14:03:43.308Z,1005.11
2016-08-19T14:04:56.311Z,1005.12
2016-08-19T14:06:09.296Z,1005.14
2016-08-19T14:07:22.290Z,1005.16
2016-08-19T14:08:35.279Z,1005.21
2016-08-19T14:09:48.279Z,1005.24
2016-08-19T14:11:01.283Z,1005.15
2016-08-19T14:12:14.276Z,1005.12
2016-08-19T14:13:27.335Z,1005.1
2016-08-19T14:14:40.332Z,1005.08
2016-08-19T14:15:53.529Z,1005.06
2016-08-19T14:17:06.525Z,1005.04
2016-08-19T14:18:19.522Z,1005.02
2016-08-19T14:19:32.521Z,1004.99
2016-08-19T14:20:45.678Z,1004.94
2016-08-19T14:21:58.871Z,1004.92
2016-08-19T14:23:11.858Z,1004.94
2016-08-19T14:24:24.856Z,1004.92
2016-08-19T14:25:37.860Z,1004.93
2016-08-19T14:26:50.862Z,1004.9
2016-08-19T14:28:03.867Z,1004.9
2016-08-19T14:29:16.888Z,1004.93
2016-08-19T14:30:29.894Z,1004.92
2016-08-19T14:31:42.889Z,1004.89
2016-08-19T14:32:55.896Z,1004.87
2016-08-19T14:34:09.094Z,1004.89
2016-08-19T14:35:22.089Z,1004.88
2016-08-19T14:36:35.101Z,1004.9
2016-08-19T14:37:48.090Z,1004.91
2016-08-19T14:39:01.104Z,1004.93
2016-08-19T14:40:14.101Z,1004.88
2016-08-19T14:41:27.122Z,1004.85
2016-08-19T14:42:40.108Z,1004.86
2016-08-19T14:43:53.111Z,1004.85
2016-08-19T14:45:06.312Z,1004.83
2016-08-19T14:46:19.304Z,1004.81
2016-08-19T14:47:32.293Z,1004.82